Impacts TAF Board
For situational awareness. Not to be used for flight planning purposes.
IDs:

KGRK - Killeen-Ft Hood Rgnl, TX, US

Issued at 0800 UTC 13 Dec 2019
Updated at 1352 UTC 13 Dec 2019
Potential Impact None Slight Moderate High
Time1258Z 13/14Z 13/15Z 13/16Z 13/17Z 13/18Z 13/19Z 13/20Z 13/21Z 13/22Z 13/23Z 14/00Z 14/01Z 14/02Z>>
Type OBS PRVL PRVL PRVL PRVL PRVL PRVL PRVL PRVL PRVL PRVL PRVL PRVL PRVL
VIS 10 >6 >6 >6 >6 >6 >6 >6 >6 >6 >6 >6 >6 >6
CIG -- -- -- -- -- -- -- -- -- -- -- -- -- --
Cover CLR SKC SKC SKC SKC SKC SKC SKC SKC SKC SKC SKC SKC SKC
FltCat VFR VFR VFR VFR VFR VFR VFR VFR VFR VFR VFR VFR VFR VFR
WX -- -- -- -- -- -- -- -- -- -- -- -- -- --
WDir 220 VRB 300 300 300 300 300 300 300 340 340 340 340 340
WSpd 8 6 10 10 10 10 10 10 10 6 6 6 6 6
WGst -- -- 15 15 15 15 15 15 15 -- -- -- -- --
Raw TAF
TAF KGRK 130800Z 1308/1414 VRB06KT 9999 SKC QNH2990INS
  BECMG 1315/1316 30010G15KT 9999 SKC QNH2990INS
  BECMG 1322/1323 34006KT 9999 SKC QNH2990INS TX19/1321Z TN03/1312Z


Raw METAR
KGRK 131258Z AUTO 22008KT 10SM CLR 08/04 A2991 RMK AO2 SLP130 T00810041
KGRK 131158Z AUTO 15007KT 10SM CLR 05/03 A2990 RMK AO2 SLP127 T00530029 10092 20046 57017
KGRK 131058Z AUTO 15006KT 10SM CLR 05/03 A2992 RMK AO2 SLP132 T00500025

METAR Board
For situational awareness. Not to be used for flight planning purposes.